createdAt,value
2022-08-07T00:00:18.574Z,2.45
2022-08-07T00:02:35.523Z,2.15
2022-08-07T00:02:45.807Z,2.35
2022-08-07T00:03:49.013Z,2.47
2022-08-07T00:04:51.878Z,2.22
2022-08-07T00:05:55.246Z,2.55
2022-08-07T00:07:01.443Z,2.40
2022-08-07T00:08:12.667Z,2.22
2022-08-07T00:09:22.732Z,2.40
2022-08-07T00:10:29.719Z,2.30
2022-08-07T00:11:33.591Z,2.15
2022-08-07T00:12:57.813Z,2.37
2022-08-07T00:13:59.460Z,2.40
2022-08-07T00:15:02.436Z,2.30
2022-08-07T00:16:06.949Z,2.37
2022-08-07T00:17:10.656Z,2.22
2022-08-07T00:18:24.493Z,2.60
2022-08-07T00:20:00.295Z,2.85
2022-08-07T00:20:57.524Z,2.40
2022-08-07T00:22:04.526Z,2.33
2022-08-07T00:23:08.156Z,2.37
2022-08-07T00:24:12.078Z,2.50
2022-08-07T00:25:17.346Z,2.60
2022-08-07T00:26:49.045Z,2.70
2022-08-07T00:27:52.341Z,2.50
2022-08-07T00:29:00.336Z,2.83
2022-08-07T00:30:06.240Z,2.28
2022-08-07T00:31:37.364Z,2.80
2022-08-07T00:32:41.524Z,2.58
2022-08-07T00:33:47.447Z,2.50
2022-08-07T00:34:50.906Z,2.47
2022-08-07T00:35:54.198Z,2.35
2022-08-07T00:36:57.438Z,2.53
2022-08-07T00:38:05.140Z,2.40
2022-08-07T00:39:08.629Z,2.42
2022-08-07T00:40:37.004Z,2.40
2022-08-07T00:42:02.096Z,2.70
2022-08-07T00:43:58.939Z,2.60
2022-08-07T00:44:35.112Z,2.80
2022-08-07T00:45:42.389Z,2.53
2022-08-07T00:46:50.369Z,2.80
2022-08-07T00:48:07.993Z,2.70
2022-08-07T00:49:24.814Z,2.95
2022-08-07T00:50:46.608Z,2.53
2022-08-07T00:51:58.465Z,2.30
2022-08-07T00:53:01.795Z,2.47
2022-08-07T00:54:04.795Z,2.90
2022-08-07T00:55:10.677Z,2.30
2022-08-07T00:56:16.097Z,2.33
2022-08-07T00:57:18.901Z,2.70
2022-08-07T00:58:21.869Z,2.62
2022-08-07T00:59:35.282Z,2.35
2022-08-07T01:00:38.964Z,2.40
2022-08-07T01:01:57.986Z,2.42
2022-08-07T01:03:01.077Z,2.87
2022-08-07T01:04:08.303Z,2.60
2022-08-07T01:05:18.844Z,2.28
2022-08-07T01:07:25.522Z,2.22
2022-08-07T01:08:31.837Z,2.60
2022-08-07T01:10:06.253Z,2.40
2022-08-07T01:12:24.053Z,2.72
2022-08-07T01:12:28.639Z,2.47
2022-08-07T01:13:35.199Z,2.70
2022-08-07T01:14:38.434Z,2.58
2022-08-07T01:16:04.885Z,2.95
2022-08-07T01:17:10.288Z,2.70
2022-08-07T01:18:16.771Z,2.78
2022-08-07T01:19:22.084Z,3.00
2022-08-07T01:20:33.234Z,2.53
2022-08-07T01:21:36.909Z,2.90
2022-08-07T01:22:46.823Z,2.53
2022-08-07T01:24:04.869Z,2.70
2022-08-07T01:25:53.589Z,2.62
2022-08-07T01:26:35.367Z,2.35
2022-08-07T01:27:51.205Z,2.72
2022-08-07T01:28:55.584Z,2.33
2022-08-07T01:30:02.140Z,2.35
2022-08-07T01:31:05.485Z,2.58
2022-08-07T01:32:12.513Z,2.50
2022-08-07T01:33:17.386Z,2.62
2022-08-07T01:34:30.063Z,2.40
2022-08-07T01:35:36.970Z,2.15
2022-08-07T01:36:57.920Z,2.35
2022-08-07T01:38:01.757Z,2.67
2022-08-07T01:39:09.788Z,2.50
2022-08-07T01:40:16.771Z,2.33
2022-08-07T01:41:26.256Z,2.20
2022-08-07T01:42:40.058Z,2.42
2022-08-07T01:43:53.301Z,2.20
2022-08-07T01:44:56.576Z,2.40
2022-08-07T01:46:02.088Z,2.75
2022-08-07T01:48:16.925Z,2.78
2022-08-07T01:48:30.161Z,3.00
2022-08-07T01:49:33.539Z,2.55
2022-08-07T01:50:43.174Z,3.03
2022-08-07T01:52:03.893Z,2.60
2022-08-07T01:53:10.081Z,2.70
2022-08-07T01:54:32.915Z,2.40
2022-08-07T01:55:47.756Z,2.60
2022-08-07T01:57:02.272Z,2.80
2022-08-07T01:58:28.849Z,2.75
2022-08-07T01:59:52.444Z,2.58
2022-08-07T02:01:25.380Z,2.50
2022-08-07T02:03:12.399Z,2.85
2022-08-07T02:04:12.467Z,2.97
2022-08-07T02:05:48.121Z,2.55
2022-08-07T02:06:47.714Z,2.35
2022-08-07T02:07:52.672Z,2.55
2022-08-07T02:09:00.269Z,2.50
2022-08-07T02:10:05.640Z,2.42
2022-08-07T02:11:10.950Z,2.40
2022-08-07T02:12:37.378Z,2.35
2022-08-07T02:14:00.671Z,2.30
2022-08-07T02:15:07.415Z,2.50
2022-08-07T02:16:12.071Z,2.60
2022-08-07T02:17:16.575Z,2.33
2022-08-07T02:18:35.364Z,2.25
2022-08-07T02:20:06.918Z,2.53
2022-08-07T02:21:08.784Z,2.37
2022-08-07T02:22:20.951Z,2.20
2022-08-07T02:23:35.791Z,2.47
2022-08-07T02:24:44.480Z,2.53
2022-08-07T02:26:32.059Z,2.80
2022-08-07T02:27:14.582Z,2.55
2022-08-07T02:28:25.331Z,2.65
2022-08-07T02:29:31.273Z,3.00
2022-08-07T02:30:35.747Z,2.25
2022-08-07T02:31:39.887Z,2.70
2022-08-07T02:33:03.952Z,2.67
2022-08-07T02:34:11.692Z,2.72
2022-08-07T02:35:20.936Z,2.85
2022-08-07T02:36:45.146Z,2.85
2022-08-07T02:37:49.957Z,2.80
2022-08-07T02:38:57.132Z,3.08
2022-08-07T02:40:31.174Z,2.72
2022-08-07T02:41:37.221Z,2.72
2022-08-07T02:43:50.492Z,2.50
2022-08-07T02:44:58.364Z,2.87
2022-08-07T02:46:04.756Z,2.55
2022-08-07T02:47:08.548Z,2.47
2022-08-07T02:48:23.377Z,2.42
2022-08-07T02:49:29.210Z,3.05
2022-08-07T02:50:53.236Z,2.67
2022-08-07T02:51:59.301Z,2.45
2022-08-07T02:53:07.358Z,3.00
2022-08-07T02:55:28.524Z,2.70
2022-08-07T02:56:51.393Z,2.90
2022-08-07T02:57:59.757Z,2.80
2022-08-07T02:59:06.348Z,2.72
2022-08-07T03:00:11.173Z,2.50
2022-08-07T03:01:18.787Z,2.90
2022-08-07T03:02:22.985Z,2.97
2022-08-07T03:03:49.297Z,2.97
2022-08-07T03:04:55.374Z,3.10
2022-08-07T03:05:59.578Z,2.67
2022-08-07T03:07:03.445Z,3.30
2022-08-07T03:08:14.366Z,2.92
2022-08-07T03:09:42.307Z,2.80
2022-08-07T03:10:50.154Z,3.12
2022-08-07T03:11:57.897Z,2.95
2022-08-07T03:13:07.194Z,3.00
2022-08-07T03:14:12.377Z,3.30
2022-08-07T03:15:15.428Z,3.50
2022-08-07T03:16:38.943Z,3.50
2022-08-07T03:17:52.820Z,3.10
2022-08-07T03:18:58.308Z,3.35
2022-08-07T03:20:01.893Z,3.20
2022-08-07T03:21:08.851Z,2.87
2022-08-07T03:22:18.954Z,3.28
2022-08-07T03:23:22.184Z,3.08
2022-08-07T03:24:37.263Z,3.17
2022-08-07T03:25:42.802Z,3.37
2022-08-07T03:26:57.906Z,3.10
2022-08-07T03:28:09.784Z,2.85
2022-08-07T03:29:29.730Z,2.90
2022-08-07T03:30:33.751Z,3.22
2022-08-07T03:31:42.355Z,2.83
2022-08-07T03:32:58.605Z,3.20
2022-08-07T03:34:03.344Z,3.03
2022-08-07T03:35:18.136Z,3.00
2022-08-07T03:36:25.806Z,2.70
2022-08-07T03:37:45.898Z,2.90
2022-08-07T03:38:54.080Z,2.57
2022-08-07T03:40:13.196Z,2.83
2022-08-07T03:41:18.780Z,2.62
2022-08-07T03:42:42.460Z,2.65
2022-08-07T03:43:56.997Z,2.42
2022-08-07T03:45:01.364Z,2.60
2022-08-07T03:46:10.320Z,2.62
2022-08-07T03:47:14.684Z,2.90
2022-08-07T03:48:17.695Z,2.47
2022-08-07T03:49:21.048Z,2.50
2022-08-07T03:50:25.575Z,2.72
2022-08-07T03:51:47.437Z,2.92
2022-08-07T03:53:01.290Z,2.85
2022-08-07T03:54:33.262Z,2.70
2022-08-07T03:55:53.130Z,2.80
2022-08-07T03:57:03.523Z,3.00
2022-08-07T03:58:34.395Z,2.90
2022-08-07T03:59:32.595Z,2.70
2022-08-07T04:00:38.690Z,2.72
2022-08-07T04:01:50.135Z,3.05
2022-08-07T04:02:56.714Z,3.40
2022-08-07T04:04:04.954Z,2.55
2022-08-07T04:05:09.114Z,2.97
2022-08-07T04:06:37.722Z,2.53
2022-08-07T04:07:42.650Z,2.67
2022-08-07T04:08:48.322Z,2.60
2022-08-07T04:09:52.124Z,2.55
2022-08-07T04:12:21.486Z,2.67
2022-08-07T04:12:27.030Z,2.30
2022-08-07T04:14:10.900Z,2.08
2022-08-07T04:14:56.971Z,2.60
2022-08-07T04:15:59.643Z,2.20
2022-08-07T04:17:03.252Z,2.50
2022-08-07T04:18:57.571Z,2.30
2022-08-07T04:19:51.140Z,2.10
2022-08-07T04:20:55.216Z,2.17
2022-08-07T04:22:04.851Z,2.17
2022-08-07T04:23:19.287Z,2.45
2022-08-07T04:24:30.736Z,2.15
2022-08-07T04:25:42.133Z,2.42
2022-08-07T04:26:45.313Z,2.47
2022-08-07T04:27:59.192Z,2.58
2022-08-07T04:29:03.916Z,2.45
2022-08-07T04:30:11.699Z,2.67
2022-08-07T04:31:20.235Z,3.00
2022-08-07T04:32:44.852Z,3.28
2022-08-07T04:33:55.043Z,3.08
2022-08-07T04:35:00.204Z,3.28
2022-08-07T04:36:06.639Z,3.12
2022-08-07T04:38:17.929Z,3.03
2022-08-07T04:39:25.764Z,3.42
2022-08-07T04:40:30.178Z,3.50
2022-08-07T04:41:36.803Z,3.50
2022-08-07T04:42:39.908Z,3.47
2022-08-07T04:44:13.036Z,3.50
2022-08-07T04:45:11.904Z,3.53
2022-08-07T04:47:08.542Z,3.97
2022-08-07T04:48:21.511Z,3.35
2022-08-07T04:49:26.188Z,3.33
2022-08-07T04:50:39.607Z,3.85
2022-08-07T04:51:54.655Z,3.85
2022-08-07T04:53:07.515Z,3.37
2022-08-07T04:54:31.880Z,3.35
2022-08-07T04:58:16.378Z,3.12
2022-08-07T04:58:16.616Z,2.78
2022-08-07T05:00:07.996Z,3.37
2022-08-07T05:00:54.084Z,3.15
2022-08-07T05:02:46.340Z,2.90
2022-08-07T05:04:17.843Z,2.15
2022-08-07T05:05:52.969Z,2.60
2022-08-07T05:06:51.250Z,1.80
2022-08-07T05:08:01.459Z,2.00
2022-08-07T05:09:42.994Z,2.10
2022-08-07T05:10:58.612Z,1.80
2022-08-07T05:12:10.527Z,1.60
2022-08-07T05:14:53.475Z,1.80
2022-08-07T05:15:03.188Z,1.85
2022-08-07T05:16:10.766Z,1.83
2022-08-07T05:17:17.470Z,1.70
2022-08-07T05:19:02.330Z,2.00
2022-08-07T05:20:09.646Z,1.85
2022-08-07T05:21:14.918Z,1.77
2022-08-07T05:22:27.686Z,1.83
2022-08-07T05:23:36.672Z,1.65
2022-08-07T05:24:40.988Z,1.90
2022-08-07T05:26:10.529Z,1.50
2022-08-07T05:27:18.457Z,1.35
2022-08-07T05:28:40.557Z,1.50
2022-08-07T05:29:51.024Z,1.60
2022-08-07T05:32:01.365Z,1.67
2022-08-07T05:33:07.863Z,1.52
2022-08-07T05:34:15.664Z,1.30
2022-08-07T05:35:23.789Z,1.58
2022-08-07T05:36:39.323Z,1.48
2022-08-07T05:37:42.931Z,1.30
2022-08-07T05:39:00.371Z,1.60
2022-08-07T05:40:17.556Z,1.40
2022-08-07T05:41:22.621Z,1.60
2022-08-07T05:42:33.835Z,1.50
2022-08-07T05:43:49.681Z,1.60
2022-08-07T05:45:14.445Z,1.55
2022-08-07T05:46:30.149Z,1.45
2022-08-07T05:47:38.449Z,1.35
2022-08-07T05:48:59.490Z,1.17
2022-08-07T05:50:03.346Z,1.45
2022-08-07T05:51:07.360Z,1.30
2022-08-07T05:52:12.046Z,1.40
2022-08-07T05:54:12.566Z,1.70
2022-08-07T05:54:53.224Z,1.58
2022-08-07T05:56:06.067Z,1.73
2022-08-07T05:57:10.087Z,1.37
2022-08-07T05:58:14.950Z,1.50
2022-08-07T05:59:21.305Z,1.42
2022-08-07T06:00:26.511Z,1.20
2022-08-07T06:01:35.777Z,1.60
2022-08-07T06:02:40.392Z,1.50
2022-08-07T06:03:56.714Z,1.50
2022-08-07T06:05:15.759Z,1.45
2022-08-07T06:06:19.718Z,1.48
2022-08-07T06:08:13.137Z,1.20
2022-08-07T06:08:47.988Z,1.23
2022-08-07T06:10:05.395Z,1.48
2022-08-07T06:11:09.425Z,1.60
2022-08-07T06:12:15.374Z,1.30
2022-08-07T06:13:18.523Z,1.23
2022-08-07T06:14:28.810Z,1.55
2022-08-07T06:15:42.014Z,1.40
2022-08-07T06:16:50.555Z,1.70
2022-08-07T06:17:59.968Z,1.20
2022-08-07T06:19:09.237Z,1.50
2022-08-07T06:20:25.555Z,1.92
2022-08-07T06:22:11.805Z,1.27
2022-08-07T06:23:25.105Z,1.30
2022-08-07T06:24:52.778Z,1.50
2022-08-07T06:25:57.053Z,1.30
2022-08-07T06:27:00.090Z,1.25
2022-08-07T06:28:09.929Z,1.27
2022-08-07T06:29:17.100Z,1.15
2022-08-07T06:30:32.248Z,1.35
2022-08-07T06:31:49.589Z,1.40
2022-08-07T06:32:53.317Z,1.37
2022-08-07T06:33:56.053Z,1.20
2022-08-07T06:35:10.422Z,1.10
2022-08-07T06:36:35.378Z,1.37
2022-08-07T06:37:43.421Z,1.33
2022-08-07T06:38:59.433Z,1.27
2022-08-07T06:40:16.977Z,1.08
2022-08-07T06:42:02.015Z,1.10
2022-08-07T06:43:00.245Z,1.33
2022-08-07T06:44:10.929Z,1.23
2022-08-07T06:45:21.060Z,1.12
2022-08-07T06:46:31.335Z,1.27
2022-08-07T06:47:38.655Z,1.10
2022-08-07T06:48:51.614Z,1.17
2022-08-07T06:49:58.220Z,1.48
2022-08-07T06:51:08.335Z,1.23
2022-08-07T06:52:14.684Z,1.15
2022-08-07T06:55:27.099Z,1.20
2022-08-07T06:55:31.199Z,1.25
2022-08-07T06:56:15.428Z,1.15
2022-08-07T06:57:20.988Z,1.30
2022-08-07T07:00:12.602Z,1.35
2022-08-07T07:00:17.625Z,1.20
2022-08-07T07:01:22.308Z,1.20
2022-08-07T07:02:54.444Z,1.30
2022-08-07T07:03:57.192Z,1.20
2022-08-07T07:05:09.401Z,1.20
2022-08-07T07:06:26.119Z,1.25
2022-08-07T07:07:59.520Z,1.20
2022-08-07T07:08:52.382Z,1.48
2022-08-07T07:09:54.944Z,1.30
2022-08-07T07:10:57.939Z,1.35
2022-08-07T07:12:16.669Z,1.35
2022-08-07T07:13:43.537Z,1.30
2022-08-07T07:15:23.870Z,1.37
2022-08-07T07:16:38.940Z,1.10
2022-08-07T07:18:05.662Z,1.10
2022-08-07T07:19:56.341Z,1.40
2022-08-07T07:20:46.016Z,0.98
2022-08-07T07:22:05.039Z,1.17
2022-08-07T07:24:11.126Z,1.30
2022-08-07T07:24:42.936Z,0.95
2022-08-07T07:26:35.031Z,1.10
2022-08-07T07:27:35.696Z,1.37
2022-08-07T07:29:38.674Z,1.25
2022-08-07T07:30:37.841Z,1.17
2022-08-07T07:31:46.595Z,1.17
2022-08-07T07:32:52.314Z,1.10
2022-08-07T07:34:02.322Z,1.23
2022-08-07T07:35:08.822Z,1.40
2022-08-07T07:36:12.851Z,1.17
2022-08-07T07:37:49.558Z,1.50
2022-08-07T07:38:47.658Z,1.20
2022-08-07T07:39:55.357Z,1.00
2022-08-07T07:41:02.862Z,1.20
2022-08-07T07:42:13.369Z,1.10
2022-08-07T07:44:45.032Z,1.05
2022-08-07T07:46:37.328Z,1.45
2022-08-07T07:47:23.097Z,1.45
2022-08-07T07:48:36.021Z,1.30
2022-08-07T07:50:32.841Z,1.48
2022-08-07T07:51:08.039Z,1.35
2022-08-07T07:52:13.124Z,1.27
2022-08-07T07:53:23.061Z,1.23
2022-08-07T07:54:29.859Z,1.20
2022-08-07T07:55:37.212Z,1.08
2022-08-07T07:56:43.712Z,1.15
2022-08-07T07:57:53.991Z,1.20
2022-08-07T07:59:03.454Z,1.40
2022-08-07T08:00:09.583Z,1.20
2022-08-07T08:02:02.513Z,1.37
2022-08-07T08:03:04.916Z,1.35
2022-08-07T08:04:11.638Z,1.10
2022-08-07T08:05:18.221Z,1.20
2022-08-07T08:06:26.648Z,1.20
2022-08-07T08:07:35.788Z,1.17
2022-08-07T08:08:48.290Z,1.20
2022-08-07T08:10:04.624Z,1.20
2022-08-07T08:11:16.548Z,1.20
2022-08-07T08:12:52.340Z,1.10
2022-08-07T08:13:57.836Z,1.10
2022-08-07T08:15:07.021Z,1.20
2022-08-07T08:16:25.322Z,1.30
2022-08-07T08:17:57.607Z,1.30
2022-08-07T08:18:58.233Z,1.20
2022-08-07T08:20:18.223Z,1.30
2022-08-07T08:21:55.356Z,1.00
2022-08-07T08:23:28.013Z,1.23
2022-08-07T08:25:04.456Z,1.20
2022-08-07T08:26:38.855Z,1.30
2022-08-07T08:27:56.744Z,1.30
2022-08-07T08:29:06.404Z,1.17
2022-08-07T08:30:17.322Z,1.30
2022-08-07T08:31:58.381Z,1.10
2022-08-07T08:32:56.290Z,1.42
2022-08-07T08:34:01.702Z,1.40
2022-08-07T08:35:09.856Z,1.75
2022-08-07T08:36:13.645Z,1.40
2022-08-07T08:37:59.534Z,1.12
2022-08-07T08:38:50.179Z,1.50
2022-08-07T08:39:58.718Z,1.30
2022-08-07T08:41:12.912Z,1.45
2022-08-07T08:42:41.255Z,1.50
2022-08-07T08:43:59.953Z,1.10
2022-08-07T08:45:59.178Z,1.45
2022-08-07T08:47:17.356Z,1.20
2022-08-07T08:48:36.195Z,1.40
2022-08-07T08:50:04.596Z,1.25
2022-08-07T08:52:01.010Z,1.42
2022-08-07T08:53:03.056Z,1.42
2022-08-07T08:54:20.324Z,1.35
2022-08-07T08:55:54.503Z,1.67
2022-08-07T08:56:54.826Z,1.60
2022-08-07T08:58:13.070Z,1.25
2022-08-07T08:59:50.990Z,1.30
2022-08-07T09:01:15.089Z,1.80
2022-08-07T09:02:39.478Z,1.58
2022-08-07T09:03:56.732Z,1.55
2022-08-07T09:05:36.612Z,1.48
2022-08-07T09:06:55.959Z,1.60
2022-08-07T09:07:59.628Z,1.33
2022-08-07T09:09:29.925Z,1.70
2022-08-07T09:11:00.679Z,1.30
2022-08-07T09:12:32.286Z,1.50
2022-08-07T09:13:42.149Z,1.75
2022-08-07T09:16:23.468Z,1.50
2022-08-07T09:16:48.849Z,1.15
2022-08-07T09:18:16.844Z,1.60
2022-08-07T09:20:35.653Z,1.80
2022-08-07T09:22:10.072Z,1.37
2022-08-07T09:24:32.504Z,1.45
2022-08-07T09:25:27.425Z,1.53
2022-08-07T09:26:47.684Z,1.75
2022-08-07T09:30:01.206Z,1.70
2022-08-07T09:30:06.697Z,1.60
2022-08-07T09:31:40.499Z,1.77
2022-08-07T09:33:05.480Z,1.60
2022-08-07T09:34:27.282Z,1.87
2022-08-07T09:36:03.370Z,1.73
2022-08-07T09:37:14.983Z,1.60
2022-08-07T09:38:50.298Z,1.50
2022-08-07T09:40:09.189Z,1.73
2022-08-07T09:41:24.464Z,1.80
2022-08-07T09:42:33.634Z,1.80
2022-08-07T09:44:07.020Z,1.77
2022-08-07T09:47:25.583Z,1.92
2022-08-07T09:47:49.519Z,2.15
2022-08-07T09:50:02.931Z,1.90
2022-08-07T09:50:39.982Z,2.20
2022-08-07T09:52:10.051Z,2.40
2022-08-07T09:53:22.610Z,2.37
2022-08-07T09:54:47.685Z,2.33
2022-08-07T09:56:11.238Z,2.35
2022-08-07T09:57:47.000Z,2.62
2022-08-07T10:00:00.657Z,2.25
2022-08-07T10:01:50.601Z,2.00
2022-08-07T10:04:03.294Z,2.30
2022-08-07T10:04:58.315Z,2.35
2022-08-07T10:06:26.169Z,2.22
2022-08-07T10:07:53.398Z,2.15
2022-08-07T10:09:59.245Z,2.17
2022-08-07T10:12:03.155Z,2.10
2022-08-07T10:13:29.771Z,2.12
2022-08-07T10:15:01.414Z,2.00
2022-08-07T10:16:30.904Z,2.00
2022-08-07T10:18:02.873Z,2.20
2022-08-07T10:19:27.409Z,2.28
2022-08-07T10:20:38.699Z,2.08
2022-08-07T10:22:15.965Z,2.37
2022-08-07T10:24:05.047Z,2.33
2022-08-07T10:25:01.174Z,2.75
2022-08-07T10:26:31.007Z,2.65
2022-08-07T10:28:12.852Z,2.20
2022-08-07T10:29:34.873Z,2.00
2022-08-07T10:30:54.265Z,2.28
2022-08-07T10:32:37.018Z,2.60
2022-08-07T10:34:07.000Z,2.20
2022-08-07T10:35:16.589Z,2.10
2022-08-07T10:37:03.828Z,2.40
2022-08-07T10:38:36.214Z,2.40
2022-08-07T10:40:06.164Z,2.12
2022-08-07T10:41:47.473Z,2.20
2022-08-07T10:43:12.862Z,2.30
2022-08-07T10:44:45.146Z,2.53
2022-08-07T10:45:57.374Z,2.50
2022-08-07T10:47:26.823Z,2.92
2022-08-07T10:49:15.004Z,2.47
2022-08-07T10:50:34.476Z,2.33
2022-08-07T10:52:13.764Z,2.83
2022-08-07T10:53:44.048Z,2.70
2022-08-07T10:55:01.891Z,2.58
2022-08-07T10:56:48.244Z,2.50
2022-08-07T10:58:18.452Z,2.50
2022-08-07T10:59:53.333Z,2.33
2022-08-07T11:01:15.101Z,2.70
2022-08-07T11:02:34.246Z,2.80
2022-08-07T11:04:16.764Z,2.92
2022-08-07T11:05:49.179Z,2.75
2022-08-07T11:07:58.697Z,2.55
2022-08-07T11:08:58.018Z,2.53
2022-08-07T11:10:08.623Z,2.55
2022-08-07T11:11:42.752Z,2.55
2022-08-07T11:14:45.309Z,2.58
2022-08-07T11:16:10.190Z,2.60
2022-08-07T11:17:46.305Z,2.70
2022-08-07T11:19:06.905Z,2.60
2022-08-07T11:20:24.592Z,2.60
2022-08-07T11:21:53.865Z,2.67
2022-08-07T11:23:36.443Z,2.53
2022-08-07T11:24:47.036Z,2.62
2022-08-07T11:26:22.049Z,2.50
2022-08-07T11:28:00.993Z,2.37
2022-08-07T11:29:43.048Z,2.60
2022-08-07T11:30:43.944Z,2.42
2022-08-07T11:32:11.091Z,2.58
2022-08-07T11:33:53.993Z,2.85
2022-08-07T11:34:51.299Z,2.12
2022-08-07T11:36:13.644Z,2.50
2022-08-07T11:37:16.292Z,2.60
2022-08-07T11:38:37.622Z,2.58
2022-08-07T11:40:11.473Z,2.42
2022-08-07T11:42:02.143Z,2.60
2022-08-07T11:43:01.803Z,2.25
2022-08-07T11:44:23.964Z,2.60
2022-08-07T11:46:11.759Z,2.80
2022-08-07T11:47:39.107Z,2.40
2022-08-07T11:50:18.533Z,3.17
2022-08-07T11:51:41.699Z,2.78
2022-08-07T11:53:15.660Z,2.67
2022-08-07T11:54:25.468Z,2.75
2022-08-07T11:56:25.585Z,2.50
2022-08-07T11:57:59.478Z,2.50
2022-08-07T12:00:10.172Z,2.50
2022-08-07T12:01:10.019Z,2.70
2022-08-07T12:02:52.181Z,2.30
2022-08-07T12:04:01.598Z,2.50
2022-08-07T12:05:15.306Z,2.50
2022-08-07T12:06:37.033Z,2.70
2022-08-07T12:09:24.418Z,2.60
2022-08-07T12:10:41.608Z,2.40
2022-08-07T12:12:10.058Z,2.65
2022-08-07T12:13:47.805Z,2.10
2022-08-07T12:15:08.093Z,2.35
2022-08-07T12:16:34.145Z,2.47
2022-08-07T12:17:58.623Z,4.45
2022-08-07T12:20:03.254Z,4.40
2022-08-07T12:21:55.442Z,2.83
2022-08-07T12:24:04.951Z,2.30
2022-08-07T12:26:03.183Z,2.78
2022-08-07T12:26:59.079Z,2.70
2022-08-07T12:28:15.195Z,2.80
2022-08-07T12:29:37.954Z,2.78
2022-08-07T12:30:46.951Z,2.40
2022-08-07T12:32:18.643Z,2.72
2022-08-07T12:33:28.543Z,2.67
2022-08-07T12:34:55.779Z,2.50
2022-08-07T12:36:02.392Z,2.58
2022-08-07T12:37:08.272Z,2.55
2022-08-07T12:38:36.802Z,2.67
2022-08-07T12:39:51.361Z,2.53
2022-08-07T12:40:56.159Z,2.60
2022-08-07T12:42:02.467Z,2.95
2022-08-07T12:43:09.838Z,2.70
2022-08-07T12:44:17.167Z,2.40
2022-08-07T12:45:26.351Z,2.60
2022-08-07T12:46:35.890Z,2.62
2022-08-07T12:47:57.782Z,2.58
2022-08-07T12:49:25.804Z,2.47
2022-08-07T12:51:24.265Z,2.90
2022-08-07T12:54:02.652Z,2.60
2022-08-07T12:55:21.713Z,2.42
2022-08-07T12:56:51.374Z,2.97
2022-08-07T12:58:02.179Z,3.00
2022-08-07T12:59:08.650Z,2.60
2022-08-07T13:00:53.076Z,2.60
2022-08-07T13:02:09.935Z,2.90
2022-08-07T13:03:56.264Z,2.75
2022-08-07T13:06:01.848Z,2.60
2022-08-07T13:08:12.730Z,2.50
2022-08-07T13:08:56.708Z,2.30
2022-08-07T13:10:29.341Z,2.45
2022-08-07T13:12:03.355Z,2.30
2022-08-07T13:13:47.883Z,2.75
2022-08-07T13:15:23.740Z,2.45
2022-08-07T13:16:55.756Z,2.90
2022-08-07T13:18:35.969Z,2.50
2022-08-07T13:19:51.641Z,2.60
2022-08-07T13:21:51.039Z,2.30
2022-08-07T13:24:01.021Z,2.58
2022-08-07T13:25:24.136Z,2.60
2022-08-07T13:26:46.120Z,2.40
2022-08-07T13:28:10.707Z,2.78
2022-08-07T13:29:23.574Z,2.85
2022-08-07T13:30:43.480Z,2.45
2022-08-07T13:31:57.716Z,2.50
2022-08-07T13:34:14.503Z,2.17
2022-08-07T13:34:57.742Z,2.45
2022-08-07T13:36:09.870Z,2.92
2022-08-07T13:37:42.201Z,2.62
2022-08-07T13:38:56.719Z,2.20
2022-08-07T13:40:35.760Z,2.37
2022-08-07T13:41:54.882Z,2.40
2022-08-07T13:43:05.565Z,2.40
2022-08-07T13:44:26.017Z,2.28
2022-08-07T13:46:11.712Z,2.40
2022-08-07T13:46:59.641Z,2.45
2022-08-07T13:48:08.821Z,2.40
2022-08-07T13:50:34.310Z,2.20
2022-08-07T13:50:45.004Z,2.60
2022-08-07T13:52:31.572Z,2.60
2022-08-07T13:53:59.481Z,2.30
2022-08-07T13:55:07.574Z,2.40
2022-08-07T13:56:19.426Z,2.85
2022-08-07T13:57:59.054Z,2.47
2022-08-07T13:59:30.506Z,2.37
2022-08-07T14:00:54.285Z,2.42
2022-08-07T14:02:15.281Z,2.55
2022-08-07T14:03:30.108Z,2.42
2022-08-07T14:04:58.352Z,2.92
2022-08-07T14:06:02.063Z,2.90
2022-08-07T14:07:10.231Z,2.78
2022-08-07T14:08:15.604Z,2.80
2022-08-07T14:10:12.363Z,2.45
2022-08-07T14:11:01.993Z,2.50
2022-08-07T14:12:30.358Z,2.40
2022-08-07T14:13:35.521Z,2.33
2022-08-07T14:14:51.612Z,2.65
2022-08-07T14:16:02.176Z,2.40
2022-08-07T14:17:51.374Z,2.28
2022-08-07T14:18:39.100Z,2.45
2022-08-07T14:20:43.429Z,2.50
2022-08-07T14:22:01.287Z,2.42
2022-08-07T14:23:02.041Z,2.30
2022-08-07T14:24:14.414Z,2.00
2022-08-07T14:26:30.470Z,2.45
2022-08-07T14:28:19.941Z,2.60
2022-08-07T14:29:10.391Z,2.55
2022-08-07T14:30:33.164Z,2.55
2022-08-07T14:31:42.741Z,2.37
2022-08-07T14:32:58.785Z,2.28
2022-08-07T14:34:03.170Z,2.58
2022-08-07T14:35:16.502Z,2.50
2022-08-07T14:36:41.044Z,2.30
2022-08-07T14:38:05.583Z,2.30
2022-08-07T14:39:12.515Z,2.60
2022-08-07T14:40:35.372Z,2.37
2022-08-07T14:42:20.915Z,2.33
2022-08-07T14:43:58.029Z,2.70
2022-08-07T14:44:30.910Z,2.47
2022-08-07T14:45:49.359Z,2.40
2022-08-07T14:47:14.431Z,2.03
2022-08-07T14:48:27.644Z,2.20
2022-08-07T14:49:57.168Z,2.33
2022-08-07T14:51:03.516Z,2.33
2022-08-07T14:52:10.301Z,2.28
2022-08-07T14:53:14.240Z,2.50
2022-08-07T14:54:30.982Z,2.50
2022-08-07T14:55:55.353Z,2.60
2022-08-07T14:57:03.244Z,2.47
2022-08-07T14:58:07.821Z,2.45
2022-08-07T15:00:56.263Z,2.50
2022-08-07T15:02:32.981Z,2.50
2022-08-07T15:03:51.331Z,2.50
2022-08-07T15:04:57.016Z,2.20
2022-08-07T15:06:04.684Z,2.72
2022-08-07T15:07:17.629Z,2.90
2022-08-07T15:08:32.726Z,2.53
2022-08-07T15:09:59.832Z,2.70
2022-08-07T15:11:08.822Z,2.50
2022-08-07T15:12:30.485Z,2.50
2022-08-07T15:13:50.543Z,2.85
2022-08-07T15:15:21.064Z,2.50
2022-08-07T15:16:41.901Z,2.40
2022-08-07T15:21:08.009Z,2.60
2022-08-07T15:22:23.246Z,2.67
2022-08-07T15:25:15.571Z,2.80
2022-08-07T15:26:41.343Z,2.40
2022-08-07T15:28:32.168Z,2.90
2022-08-07T15:31:05.005Z,2.90
2022-08-07T15:32:05.007Z,2.50
2022-08-07T15:33:19.387Z,2.60
2022-08-07T15:34:26.095Z,2.58
2022-08-07T15:37:03.151Z,2.65
2022-08-07T15:38:29.799Z,2.58
2022-08-07T15:39:56.611Z,2.80
2022-08-07T15:42:44.206Z,2.30
2022-08-07T15:44:08.496Z,2.62
2022-08-07T15:45:19.391Z,2.67
2022-08-07T15:48:01.931Z,3.10
2022-08-07T15:49:12.446Z,2.58
2022-08-07T15:50:37.889Z,2.90
2022-08-07T15:53:07.677Z,2.78
2022-08-07T15:54:13.388Z,2.60
2022-08-07T15:55:20.398Z,2.80
2022-08-07T15:56:38.477Z,2.50
2022-08-07T15:57:51.414Z,2.72
2022-08-07T15:58:59.399Z,2.83
2022-08-07T16:00:06.323Z,2.72
2022-08-07T16:01:20.480Z,2.50
2022-08-07T16:02:28.492Z,2.78
2022-08-07T16:03:46.402Z,2.60
2022-08-07T16:04:57.958Z,2.85
2022-08-07T16:06:01.668Z,2.50
2022-08-07T16:08:32.925Z,2.72
2022-08-07T16:08:41.412Z,2.47
2022-08-07T16:09:54.540Z,2.60
2022-08-07T16:11:26.546Z,2.55
2022-08-07T16:13:01.115Z,3.10
2022-08-07T16:14:17.131Z,2.50
2022-08-07T16:15:57.524Z,2.33
2022-08-07T16:18:02.062Z,2.50
2022-08-07T16:19:42.838Z,2.33
2022-08-07T16:21:44.076Z,2.70
2022-08-07T16:22:31.961Z,2.42
2022-08-07T16:23:54.473Z,2.55
2022-08-07T16:25:22.777Z,2.80
2022-08-07T16:26:30.823Z,2.40
2022-08-07T16:27:41.888Z,2.90
2022-08-07T16:30:06.016Z,2.30
2022-08-07T16:30:50.142Z,2.40
2022-08-07T16:32:01.466Z,2.35
2022-08-07T16:34:45.289Z,1.98
2022-08-07T16:36:03.504Z,2.30
2022-08-07T16:38:06.805Z,2.53
2022-08-07T16:39:40.625Z,2.83
2022-08-07T16:41:17.302Z,2.83
2022-08-07T16:42:31.829Z,2.22
2022-08-07T16:44:40.489Z,2.70
2022-08-07T16:46:47.405Z,2.33
2022-08-07T16:48:09.032Z,2.47
2022-08-07T16:50:29.367Z,2.83
2022-08-07T16:51:54.150Z,2.95
2022-08-07T16:52:55.460Z,2.85
2022-08-07T16:54:19.242Z,2.42
2022-08-07T16:55:51.290Z,2.22
2022-08-07T16:56:54.545Z,2.15
2022-08-07T16:59:02.426Z,2.47
2022-08-07T17:00:10.956Z,2.42
2022-08-07T17:01:48.543Z,2.20
2022-08-07T17:04:00.057Z,2.10
2022-08-07T17:05:15.218Z,2.70
2022-08-07T17:07:03.279Z,2.53
2022-08-07T17:08:09.173Z,2.20
2022-08-07T17:10:07.790Z,2.30
2022-08-07T17:10:54.357Z,2.30
2022-08-07T17:12:35.643Z,2.20
2022-08-07T17:14:18.949Z,2.20
2022-08-07T17:15:44.700Z,2.47
2022-08-07T17:17:01.185Z,2.35
2022-08-07T17:18:32.521Z,2.35
2022-08-07T17:20:02.014Z,2.50
2022-08-07T17:21:23.873Z,2.28
2022-08-07T17:22:36.424Z,2.10
2022-08-07T17:23:49.596Z,2.20
2022-08-07T17:25:08.226Z,2.00
2022-08-07T17:26:57.674Z,2.25
2022-08-07T17:28:25.488Z,2.08
2022-08-07T17:30:16.085Z,2.28
2022-08-07T17:31:16.353Z,2.25
2022-08-07T17:32:35.260Z,2.42
2022-08-07T17:34:15.275Z,2.25
2022-08-07T17:35:49.837Z,1.95
2022-08-07T17:37:08.912Z,2.35
2022-08-07T17:38:40.583Z,2.45
2022-08-07T17:40:08.797Z,2.12
2022-08-07T17:42:03.778Z,1.95
2022-08-07T17:42:59.431Z,2.35
2022-08-07T17:44:33.603Z,2.00
2022-08-07T17:45:53.824Z,2.22
2022-08-07T17:47:03.345Z,2.10
2022-08-07T17:48:16.302Z,2.25
2022-08-07T17:49:56.746Z,2.10
2022-08-07T17:51:23.107Z,2.20
2022-08-07T17:52:40.024Z,2.10
2022-08-07T17:54:06.457Z,1.95
2022-08-07T17:56:01.305Z,2.05
2022-08-07T17:56:49.658Z,2.10